This is the latest recevied weather packets stored in our database for station/object JS1SZZ-13. If no packets are shown the sender has not sent any weather packets the latest 1 day(s).
| Time | Temp. | Humidity | Pressure | Rain* | Wind** | Luminosity | Snow |
|---|---|---|---|---|---|---|---|
| 1836274667 | 17.78° C | 89% | 1011.9 hPa | 0 mm | 0 m/s | - | - |
| 1836274515 | 17.78° C | 89% | 1012.1 hPa | 0.25 mm | 0 m/s | - | - |
| 1836274066 | 17.78° C | 90% | 1012.3 hPa | 0 mm | 0 m/s | - | - |
| 1778027442 | 18.33° C | 47% | 1019.7 hPa | 0 mm | 0 m/s | - | - |
| 1778026542 | 17.78° C | 44% | 1019.5 hPa | 0 mm | 0 m/s | - | - |
| 1778025641 | 16.67° C | 52% | 1019.7 hPa | 0 mm | 0 m/s | - | - |
| 1778024743 | 15.56° C | 49% | 1019.9 hPa | 0 mm | 0 m/s | - | - |
| 1778023842 | 15.56° C | 50% | 1020.1 hPa | 0 mm | 0 m/s | - | - |
| 1778022941 | 15° C | 52% | 1020.3 hPa | 0 mm | 0 m/s | - | - |
| 1778022042 | 14.44° C | 52% | 1020.4 hPa | 0 mm | 0 m/s | - | - |
| 1778021142 | 13.89° C | 56% | 1020.5 hPa | 0 mm | 0 m/s | - | - |
| 1778020242 | 13.33° C | 58% | 1020.7 hPa | 0 mm | 0 m/s | - | - |
| 1778019342 | 12.78° C | 57% | 1020.7 hPa | 0 mm | 0 m/s | - | - |
| 1778018441 | 11.67° C | 64% | 1021.1 hPa | 0 mm | 0 m/s | - | - |
| 1778017541 | 10.56° C | 68% | 1021 hPa | 0 mm | 0 m/s | - | - |
| 1778016642 | 9.44° C | 79% | 1021.3 hPa | 0 mm | 0 m/s | - | - |
| 1778015741 | 7.78° C | 85% | 1021.4 hPa | 0 mm | 0 m/s | - | - |
| 1778014842 | 6.67° C | 89% | 1021.1 hPa | 0 mm | 0 m/s | - | - |
| 1778013942 | 6.11° C | 90% | 1020.8 hPa | 0 mm | 0 m/s | - | - |
| 1778013041 | 5° C | 91% | 1021 hPa | 0 mm | 0 m/s | - | - |
| 1778012142 | 4.44° C | 91% | 1020.9 hPa | 0 mm | 0 m/s | - | - |
| 1778011241 | 4.44° C | 91% | 1020.7 hPa | 0 mm | 0 m/s | - | - |
| 1778010342 | 4.44° C | 91% | 1020.7 hPa | 0 mm | 0 m/s | - | - |
| 1778009442 | 4.44° C | 92% | 1020.8 hPa | 0 mm | 0 m/s | - | - |
| 1778008543 | 4.44° C | 92% | 1020.8 hPa | 0 mm | 0 m/s | - | - |
* Rain latest hour (hover to see other rain measurements)
** Current wind speed in m/s (hover to see current wind gust speed)